createdAt,value
2022-12-27T00:00:29.046Z,1.48
2022-12-27T00:07:11.987Z,1.27
2022-12-27T00:13:54.801Z,1.50
2022-12-27T00:20:37.125Z,1.40
2022-12-27T00:27:21.724Z,1.20
2022-12-27T00:34:07.115Z,0.90
2022-12-27T00:40:49.732Z,1.10
2022-12-27T00:47:32.240Z,1.60
2022-12-27T00:54:14.570Z,1.50
2022-12-27T01:01:09.358Z,1.17
2022-12-27T01:07:52.782Z,1.20
2022-12-27T01:14:35.571Z,1.70
2022-12-27T01:21:21.945Z,1.15
2022-12-27T01:28:05.083Z,1.40
2022-12-27T01:34:47.486Z,1.10
2022-12-27T01:41:52.046Z,1.63
2022-12-27T01:48:34.537Z,1.48
2022-12-27T01:55:31.820Z,1.30
2022-12-27T02:02:14.851Z,1.80
2022-12-27T02:09:16.842Z,1.52
2022-12-27T02:15:59.316Z,1.20
2022-12-27T02:23:40.011Z,1.75
2022-12-27T02:30:25.008Z,1.33
2022-12-27T02:37:10.408Z,1.40
2022-12-27T02:44:15.925Z,1.42
2022-12-27T02:51:50.570Z,1.45
2022-12-27T02:59:10.597Z,1.45
2022-12-27T03:06:38.595Z,1.50
2022-12-27T03:14:10.833Z,1.35
2022-12-27T03:21:19.705Z,1.40
2022-12-27T03:28:32.189Z,1.35
2022-12-27T03:35:19.686Z,1.48
2022-12-27T03:42:30.343Z,1.30
2022-12-27T03:49:18.794Z,1.48
2022-12-27T03:56:06.388Z,1.30
2022-12-27T04:02:48.955Z,1.60
2022-12-27T04:09:50.781Z,1.60
2022-12-27T04:16:51.575Z,1.60
2022-12-27T04:23:52.541Z,1.60
2022-12-27T04:31:08.280Z,1.52
2022-12-27T04:37:51.011Z,1.73
2022-12-27T04:44:57.067Z,1.60
2022-12-27T04:51:57.903Z,1.55
2022-12-27T04:59:00.417Z,1.60
2022-12-27T05:05:44.769Z,1.48
2022-12-27T05:12:46.063Z,1.60
2022-12-27T05:19:28.506Z,1.85
2022-12-27T05:26:10.857Z,1.73
2022-12-27T05:32:56.665Z,1.88
2022-12-27T05:39:38.998Z,1.80
2022-12-27T05:46:22.221Z,2.28
2022-12-27T05:53:04.648Z,2.10
2022-12-27T05:59:47.721Z,1.80
2022-12-27T06:06:30.107Z,2.00
2022-12-27T06:13:13.471Z,2.00
2022-12-27T06:19:57.411Z,1.90
2022-12-27T06:26:40.069Z,2.00
2022-12-27T06:33:29.234Z,2.03
2022-12-27T06:40:11.998Z,1.95
2022-12-27T06:46:54.366Z,1.70
2022-12-27T06:53:43.001Z,1.95
2022-12-27T07:00:25.532Z,1.90
2022-12-27T07:07:13.600Z,2.10
2022-12-27T07:13:58.428Z,2.10
2022-12-27T07:20:40.788Z,2.17
2022-12-27T07:27:23.695Z,2.72
2022-12-27T07:34:06.553Z,2.08
2022-12-27T07:41:21.423Z,2.38
2022-12-27T07:48:13.126Z,2.50
2022-12-27T07:54:55.464Z,2.30
2022-12-27T08:01:57.496Z,1.70
2022-12-27T08:09:24.150Z,1.95
2022-12-27T08:16:07.115Z,1.80
2022-12-27T08:22:49.600Z,1.90
2022-12-27T08:29:32.136Z,2.10
2022-12-27T08:36:45.293Z,2.50
2022-12-27T08:43:17.993Z,2.45
2022-12-27T08:50:00.311Z,2.33
2022-12-27T08:56:43.680Z,2.15
2022-12-27T09:03:26.098Z,2.03
2022-12-27T09:10:23.392Z,2.38
2022-12-27T09:17:08.915Z,1.90
2022-12-27T09:23:51.759Z,2.10
2022-12-27T09:30:34.114Z,2.08
2022-12-27T09:37:16.597Z,2.30
2022-12-27T09:44:04.406Z,2.30
2022-12-27T09:50:54.361Z,2.25
2022-12-27T09:57:44.823Z,2.05
2022-12-27T10:04:53.024Z,2.30
2022-12-27T10:11:51.270Z,2.35
2022-12-27T10:19:03.444Z,2.20
2022-12-27T10:25:47.872Z,2.08
2022-12-27T10:32:30.918Z,2.65
2022-12-27T10:39:18.929Z,27.67
2022-12-27T10:46:21.597Z,2.33
2022-12-27T10:53:04.215Z,2.25
2022-12-27T11:00:06.823Z,2.47
2022-12-27T11:06:51.839Z,2.28
2022-12-27T11:13:34.243Z,2.50
2022-12-27T11:20:24.722Z,2.20
2022-12-27T11:27:29.696Z,2.10
2022-12-27T11:34:32.204Z,1.80
2022-12-27T11:41:28.594Z,2.10
2022-12-27T11:48:16.853Z,2.15
2022-12-27T11:55:27.229Z,2.40
2022-12-27T12:02:27.239Z,1.60
2022-12-27T12:09:26.760Z,1.63
2022-12-27T12:16:14.560Z,1.70
2022-12-27T12:23:29.168Z,1.60
2022-12-27T12:30:39.457Z,1.90
2022-12-27T12:38:02.272Z,1.35
2022-12-27T12:45:15.433Z,2.40
2022-12-27T12:52:40.091Z,2.05
2022-12-27T12:59:56.494Z,1.85
2022-12-27T13:07:03.411Z,1.65
2022-12-27T13:14:03.376Z,2.03
2022-12-27T13:21:00.524Z,1.83
2022-12-27T13:27:57.009Z,2.22
2022-12-27T13:34:47.990Z,1.80
2022-12-27T13:42:02.427Z,2.10
2022-12-27T13:49:07.405Z,1.67
2022-12-27T13:56:14.680Z,2.38
2022-12-27T14:03:33.382Z,1.85
2022-12-27T14:10:44.968Z,2.03
2022-12-27T14:18:01.635Z,2.10
2022-12-27T14:25:14.787Z,1.27
2022-12-27T14:32:38.197Z,1.38
2022-12-27T14:39:48.825Z,1.20
2022-12-27T14:47:07.588Z,2.15
2022-12-27T14:54:08.847Z,1.90
2022-12-27T15:01:14.567Z,1.38
2022-12-27T15:08:25.459Z,1.73
2022-12-27T15:15:15.015Z,1.55
2022-12-27T15:22:00.171Z,1.90
2022-12-27T15:29:07.254Z,2.20
2022-12-27T15:35:56.006Z,2.28
2022-12-27T15:42:57.751Z,2.15
2022-12-27T15:50:13.014Z,2.00
2022-12-27T15:57:28.649Z,2.55
2022-12-27T16:04:41.017Z,2.60
2022-12-27T16:12:02.853Z,2.58
2022-12-27T16:19:00.813Z,5.65
2022-12-27T16:25:43.676Z,3.20
2022-12-27T16:32:28.226Z,2.88
2022-12-27T16:39:27.891Z,2.88
2022-12-27T16:46:28.730Z,3.90
2022-12-27T16:53:47.587Z,2.75
2022-12-27T17:00:45.130Z,3.20
2022-12-27T17:07:52.569Z,3.30
2022-12-27T17:14:38.061Z,4.40
2022-12-27T17:21:30.496Z,3.10
2022-12-27T17:28:22.653Z,3.83
2022-12-27T17:35:15.520Z,4.45
2022-12-27T17:42:34.517Z,8.65
2022-12-27T17:49:17.305Z,4.90
2022-12-27T17:56:28.983Z,4.93
2022-12-27T18:03:14.198Z,4.28
2022-12-27T18:10:34.408Z,4.20
2022-12-27T18:17:43.053Z,4.65
2022-12-27T18:24:33.467Z,5.20
2022-12-27T18:31:38.066Z,5.47
2022-12-27T18:38:34.961Z,5.32
2022-12-27T18:45:23.904Z,6.15
2022-12-27T18:52:14.040Z,5.25
2022-12-27T18:59:05.885Z,6.22
2022-12-27T19:06:13.069Z,6.40
2022-12-27T19:12:56.977Z,5.93
2022-12-27T19:19:39.475Z,5.80
2022-12-27T19:26:28.388Z,6.38
2022-12-27T19:33:27.034Z,5.78
2022-12-27T19:40:14.610Z,5.65
2022-12-27T19:46:56.887Z,7.13
2022-12-27T19:53:41.191Z,7.10
2022-12-27T20:00:24.559Z,7.80
2022-12-27T20:07:17.284Z,7.80
2022-12-27T20:14:00.338Z,7.13
2022-12-27T20:20:43.524Z,7.75
2022-12-27T20:27:26.222Z,8.68
2022-12-27T20:34:10.128Z,7.82
2022-12-27T20:40:52.801Z,8.00
2022-12-27T20:47:35.632Z,8.30
2022-12-27T20:54:18.051Z,8.13
2022-12-27T21:01:17.801Z,8.73
2022-12-27T21:08:00.235Z,9.13
2022-12-27T21:15:08.683Z,8.50
2022-12-27T21:21:51.013Z,8.77
2022-12-27T21:28:34.127Z,9.00
2022-12-27T21:35:16.509Z,7.88
2022-12-27T21:41:58.893Z,8.60
2022-12-27T21:48:42.055Z,9.02
2022-12-27T21:55:24.357Z,7.85
2022-12-27T22:02:06.740Z,7.70
2022-12-27T22:08:52.479Z,7.95
2022-12-27T22:15:34.832Z,7.78
2022-12-27T22:22:17.116Z,7.47
2022-12-27T22:28:59.800Z,6.32
2022-12-27T22:35:44.737Z,7.03
2022-12-27T22:42:27.127Z,7.60
2022-12-27T22:49:09.417Z,6.80
2022-12-27T22:55:51.723Z,6.05
2022-12-27T23:02:34.185Z,6.50
2022-12-27T23:09:16.654Z,5.50
2022-12-27T23:16:00.873Z,5.70
2022-12-27T23:22:43.640Z,5.68
2022-12-27T23:29:25.962Z,5.65
2022-12-27T23:36:12.825Z,5.35
2022-12-27T23:43:12.462Z,5.10
2022-12-27T23:50:00.812Z,5.47
2022-12-27T23:57:22.248Z,5.65
